createdAt,value
2022-11-13T00:00:18.964Z,58.8
2022-11-13T00:05:18.777Z,58.6
2022-11-13T00:10:18.706Z,58.4
2022-11-13T00:15:18.833Z,58.2
2022-11-13T00:20:18.751Z,58.1
2022-11-13T00:25:18.873Z,58.0
2022-11-13T00:30:19.700Z,57.8
2022-11-13T00:35:18.991Z,57.7
2022-11-13T00:40:18.784Z,57.6
2022-11-13T00:45:15.653Z,57.5
2022-11-13T00:50:16.015Z,57.5
2022-11-13T00:55:18.933Z,57.4
2022-11-13T01:00:18.792Z,57.2
2022-11-13T01:05:18.834Z,57.1
2022-11-13T01:10:18.910Z,57.0
2022-11-13T01:15:18.818Z,56.8
2022-11-13T01:20:18.910Z,56.7
2022-11-13T01:25:18.893Z,56.6
2022-11-13T01:30:18.772Z,56.4
2022-11-13T01:35:15.844Z,56.4
2022-11-13T01:40:15.843Z,56.4
2022-11-13T01:45:19.107Z,56.3
2022-11-13T01:50:18.885Z,56.2
2022-11-13T01:55:18.820Z,56.2
2022-11-13T02:00:18.892Z,56.3
2022-11-13T02:05:18.955Z,56.3
2022-11-13T02:10:18.923Z,56.2
2022-11-13T02:15:18.892Z,56.2
2022-11-13T02:20:18.890Z,56.1
2022-11-13T02:25:18.946Z,56.0
2022-11-13T02:30:16.462Z,55.9
2022-11-13T02:35:15.916Z,55.9
2022-11-13T02:40:19.037Z,55.8
2022-11-13T02:45:19.006Z,55.7
2022-11-13T02:50:19.102Z,55.7
2022-11-13T02:55:19.029Z,55.6
2022-11-13T03:00:19.024Z,55.5
2022-11-13T03:05:19.065Z,55.4
2022-11-13T03:10:19.221Z,55.3
2022-11-13T03:15:19.071Z,55.2
2022-11-13T03:20:19.018Z,55.3
2022-11-13T03:25:16.085Z,55.2
2022-11-13T03:30:18.987Z,55.0
2022-11-13T03:35:19.059Z,54.8
2022-11-13T03:40:19.120Z,54.7
2022-11-13T03:45:19.096Z,54.6
2022-11-13T03:50:19.134Z,54.4
2022-11-13T03:55:19.097Z,54.5
2022-11-13T04:00:19.149Z,54.4
2022-11-13T04:05:22.761Z,54.3
2022-11-13T04:10:19.142Z,54.3
2022-11-13T04:15:15.995Z,54.2
2022-11-13T04:20:15.974Z,54.1
2022-11-13T04:25:19.124Z,54.1
2022-11-13T04:30:19.069Z,54.0
2022-11-13T04:35:19.162Z,53.9
2022-11-13T04:40:19.164Z,53.9
2022-11-13T04:45:19.223Z,53.9
2022-11-13T04:50:19.167Z,54.0
2022-11-13T04:55:19.188Z,54.0
2022-11-13T05:00:20.483Z,53.9
2022-11-13T05:05:20.483Z,53.9
2022-11-13T05:10:20.506Z,53.8
2022-11-13T05:15:20.486Z,53.9
2022-11-13T05:20:20.407Z,53.8
2022-11-13T05:25:20.504Z,53.7
2022-11-13T05:30:20.429Z,53.6
2022-11-13T05:35:20.662Z,53.6
2022-11-13T05:40:17.329Z,53.5
2022-11-13T05:45:20.523Z,53.4
2022-11-13T05:50:20.569Z,53.4
2022-11-13T05:55:23.380Z,53.4
2022-11-13T06:00:20.641Z,53.4
2022-11-13T06:05:20.514Z,53.3
2022-11-13T06:10:20.554Z,53.2
2022-11-13T06:15:20.434Z,53.1
2022-11-13T06:20:20.484Z,53.1
2022-11-13T06:25:20.568Z,53.1
2022-11-13T06:30:17.300Z,53.1
2022-11-13T06:35:17.381Z,52.9
2022-11-13T06:40:18.605Z,52.8
2022-11-13T06:45:18.747Z,52.7
2022-11-13T06:50:18.567Z,52.7
2022-11-13T06:55:18.646Z,52.5
2022-11-13T07:00:18.499Z,52.4
2022-11-13T07:05:18.779Z,52.4
2022-11-13T07:10:15.692Z,52.5
2022-11-13T07:15:15.535Z,52.5
2022-11-13T07:20:18.799Z,52.5
2022-11-13T07:25:18.705Z,52.6
2022-11-13T07:30:18.742Z,52.6
2022-11-13T07:35:18.677Z,52.5
2022-11-13T07:40:18.693Z,52.5
2022-11-13T07:45:18.770Z,52.5
2022-11-13T07:50:18.646Z,52.4
2022-11-13T07:55:18.698Z,52.4
2022-11-13T08:00:18.673Z,52.5
2022-11-13T08:05:15.685Z,52.6
2022-11-13T08:10:15.641Z,52.6
2022-11-13T08:15:15.716Z,52.6
2022-11-13T08:20:18.694Z,52.5
2022-11-13T08:25:18.755Z,52.4
2022-11-13T08:30:18.700Z,52.4
2022-11-13T08:35:19.652Z,52.3
2022-11-13T08:40:18.820Z,52.3
2022-11-13T08:45:15.824Z,52.3
2022-11-13T08:50:18.739Z,52.3
2022-11-13T08:55:15.707Z,52.4
2022-11-13T09:00:15.559Z,52.4
2022-11-13T09:05:18.910Z,52.5
2022-11-13T09:10:18.667Z,52.5
2022-11-13T09:15:24.175Z,52.5
2022-11-13T09:20:22.719Z,52.5
2022-11-13T09:25:18.839Z,52.6
2022-11-13T09:30:18.695Z,52.5
2022-11-13T09:35:18.747Z,52.5
2022-11-13T09:40:18.902Z,52.6
2022-11-13T09:45:18.866Z,52.6
2022-11-13T09:50:15.854Z,52.6
2022-11-13T09:55:15.694Z,52.6
2022-11-13T10:00:18.879Z,52.5
2022-11-13T10:05:18.916Z,52.4
2022-11-13T10:10:18.913Z,52.2
2022-11-13T10:15:18.947Z,52.1
2022-11-13T10:20:18.726Z,52.0
2022-11-13T10:25:19.089Z,51.9
2022-11-13T10:30:18.792Z,51.9
2022-11-13T10:35:18.948Z,51.7
2022-11-13T10:40:19.004Z,51.8
2022-11-13T10:45:15.891Z,51.7
2022-11-13T10:50:19.023Z,51.5
2022-11-13T10:55:19.029Z,51.4
2022-11-13T11:00:18.993Z,51.3
2022-11-13T11:05:19.050Z,51.3
2022-11-13T11:10:18.967Z,51.2
2022-11-13T11:15:18.973Z,51.2
2022-11-13T11:20:19.048Z,51.2
2022-11-13T11:25:19.005Z,51.3
2022-11-13T11:30:18.857Z,51.3
2022-11-13T11:35:15.957Z,51.4
2022-11-13T11:40:16.085Z,51.4
2022-11-13T11:45:18.981Z,51.5
2022-11-13T11:50:19.023Z,51.5
2022-11-13T11:55:19.078Z,51.5
2022-11-13T12:00:19.129Z,51.6
2022-11-13T12:05:20.258Z,51.6
2022-11-13T12:10:19.063Z,51.4
2022-11-13T12:15:19.151Z,51.3
2022-11-13T12:20:19.024Z,51.2
2022-11-13T12:25:19.036Z,51.0
2022-11-13T12:30:15.957Z,50.7
2022-11-13T12:35:16.015Z,50.5
2022-11-13T12:40:19.168Z,50.2
2022-11-13T12:45:19.064Z,50.1
2022-11-13T12:50:19.213Z,50.1
2022-11-13T12:55:19.163Z,50.0
2022-11-13T13:00:19.059Z,49.9
2022-11-13T13:05:19.292Z,49.9
2022-11-13T13:10:19.199Z,50.1
2022-11-13T13:15:19.104Z,50.3
2022-11-13T13:20:19.213Z,50.3
2022-11-13T13:25:16.020Z,50.3
2022-11-13T13:30:19.132Z,50.3
2022-11-13T13:35:19.220Z,50.3
2022-11-13T13:40:19.238Z,50.3
2022-11-13T13:45:24.737Z,50.5
2022-11-13T13:50:19.269Z,50.5
2022-11-13T13:55:19.172Z,50.5
2022-11-13T14:00:19.286Z,50.6
2022-11-13T14:05:19.190Z,50.6
2022-11-13T14:10:19.271Z,50.6
2022-11-13T14:15:16.273Z,50.5
2022-11-13T14:20:16.090Z,50.3
2022-11-13T14:25:19.354Z,50.2
2022-11-13T14:30:19.196Z,50.2
2022-11-13T14:35:19.252Z,50.3
2022-11-13T14:40:19.249Z,50.3
2022-11-13T14:45:19.352Z,50.4
2022-11-13T14:50:19.272Z,50.3
2022-11-13T14:55:19.337Z,50.1
2022-11-13T15:00:19.267Z,49.9
2022-11-13T15:05:19.391Z,50.0
2022-11-13T15:10:16.248Z,49.9
2022-11-13T15:15:16.294Z,49.8
2022-11-13T15:20:19.518Z,49.6
2022-11-13T15:25:19.296Z,49.7
2022-11-13T15:30:19.296Z,49.7
2022-11-13T15:35:19.346Z,49.8
2022-11-13T15:40:19.341Z,49.7
2022-11-13T15:45:19.352Z,49.7
2022-11-13T15:50:19.380Z,49.7
2022-11-13T15:55:19.444Z,49.5
2022-11-13T16:00:19.410Z,49.3
2022-11-13T16:05:16.310Z,49.2
2022-11-13T16:10:16.558Z,49.2
2022-11-13T16:15:19.475Z,49.3
2022-11-13T16:20:19.332Z,49.4
2022-11-13T16:25:19.356Z,49.5
2022-11-13T16:30:19.378Z,49.4
2022-11-13T16:35:19.384Z,49.2
2022-11-13T16:40:19.468Z,49.0
2022-11-13T16:45:19.460Z,48.9
2022-11-13T16:50:19.477Z,48.8
2022-11-13T16:55:16.331Z,48.8
2022-11-13T17:00:16.426Z,48.7
2022-11-13T17:05:19.730Z,48.9
2022-11-13T17:10:34.764Z,48.7
2022-11-13T17:15:19.430Z,48.5
2022-11-13T17:20:19.492Z,48.5
2022-11-13T17:25:19.471Z,48.2
2022-11-13T17:30:19.410Z,48.3
2022-11-13T17:35:19.453Z,48.3
2022-11-13T17:40:19.540Z,48.4
2022-11-13T17:45:19.545Z,48.4
2022-11-13T17:50:16.450Z,48.4
2022-11-13T17:55:16.409Z,48.3
2022-11-13T18:00:19.609Z,48.0
2022-11-13T18:05:19.638Z,48.0
2022-11-13T18:10:19.555Z,47.9
2022-11-13T18:15:19.625Z,47.9
2022-11-13T18:20:19.668Z,47.9
2022-11-13T18:25:19.636Z,47.8
2022-11-13T18:30:19.505Z,47.8
2022-11-13T18:35:19.577Z,47.7
2022-11-13T18:40:19.859Z,47.5
2022-11-13T18:45:16.500Z,47.5
2022-11-13T18:50:19.865Z,47.4
2022-11-13T18:55:19.880Z,47.5
2022-11-13T19:00:19.719Z,47.8
2022-11-13T19:05:19.739Z,48.0
2022-11-13T19:10:19.726Z,48.1
2022-11-13T19:15:19.635Z,48.0
2022-11-13T19:20:19.760Z,48.0
2022-11-13T19:25:19.795Z,47.9
2022-11-13T19:30:19.665Z,48.0
2022-11-13T19:35:16.716Z,48.0
2022-11-13T19:40:16.652Z,48.1
2022-11-13T19:45:19.747Z,48.0
2022-11-13T19:50:19.867Z,48.1
2022-11-13T19:55:19.776Z,48.2
2022-11-13T20:00:19.802Z,48.3
2022-11-13T20:05:19.844Z,48.3
2022-11-13T20:10:19.795Z,48.3
2022-11-13T20:15:19.755Z,48.4
2022-11-13T20:20:16.816Z,48.4
2022-11-13T20:25:19.802Z,48.5
2022-11-13T20:30:16.704Z,48.4
2022-11-13T20:35:16.725Z,48.5
2022-11-13T20:40:19.893Z,48.6
2022-11-13T20:45:19.845Z,48.5
2022-11-13T20:50:19.840Z,48.6
2022-11-13T20:55:19.821Z,48.7
2022-11-13T21:00:19.851Z,48.7
2022-11-13T21:05:19.777Z,48.7
2022-11-13T21:10:20.061Z,48.8
2022-11-13T21:15:19.889Z,48.8
2022-11-13T21:20:19.929Z,48.7
2022-11-13T21:25:16.766Z,48.7
2022-11-13T21:30:19.751Z,48.7
2022-11-13T21:35:22.707Z,48.7
2022-11-13T21:40:19.944Z,48.7
2022-11-13T21:45:20.056Z,48.7
2022-11-13T21:50:19.975Z,48.6
2022-11-13T21:55:20.010Z,48.7
2022-11-13T22:00:19.958Z,48.6
2022-11-13T22:05:19.869Z,48.5
2022-11-13T22:10:20.058Z,48.5
2022-11-13T22:15:16.969Z,48.4
2022-11-13T22:20:16.929Z,48.4
2022-11-13T22:25:20.001Z,48.3
2022-11-13T22:30:19.864Z,48.2
2022-11-13T22:35:20.021Z,48.3
2022-11-13T22:40:19.995Z,48.2
2022-11-13T22:45:24.282Z,48.2
2022-11-13T22:50:19.979Z,48.1
2022-11-13T22:55:19.997Z,48.0
2022-11-13T23:00:20.079Z,47.8
2022-11-13T23:05:19.996Z,47.6
2022-11-13T23:10:16.985Z,47.6
2022-11-13T23:15:17.167Z,47.0
2022-11-13T23:20:20.134Z,46.7
2022-11-13T23:25:20.048Z,46.5
2022-11-13T23:30:19.999Z,46.2
2022-11-13T23:35:20.121Z,46.2
2022-11-13T23:40:20.146Z,45.8
2022-11-13T23:45:20.076Z,45.2
2022-11-13T23:50:20.172Z,45.1
2022-11-13T23:55:20.162Z,44.8
